EHKD/DHR METAR and TAF weather

Enter ICAO airport designator
Station Type Date Time Source
EHKD METAR 2020/01/18 04:37 UTC NOAA

EHKD 180437Z AUTO 25015KT 220V280 9999 FEW022 SCT025 06/03 Q1017 BLU


Station Type Date Time Source
EHKD Decoded METAR 2020/01/18 04:37 UTC NOAA

De Kooy, Netherlands (EHKD) 52-55N 004-47E 14M
Jan 17, 2020 - 11:37 PM EST / 2020.01.18 0437 UTC
Wind: from the WSW (250 degrees) at 17 MPH (15 KT) (direction variable):0
Visibility: greater than 7 mile(s):0
Sky conditions: partly cloudy
Temperature: 42 F (6 C)
Dew Point: 37 F (3 C)
Relative Humidity: 81%
Pressure (altimeter): 30.03 in. Hg (1017 hPa)
ob: EHKD 180437Z AUTO 25015KT 220V280 9999 FEW022 SCT025 06/03 Q1017 BLU
cycle: 4

Station Type Date Time Source
EHKD TAF 2020/01/18 02:33 UTC NOAA

TAF TAF EHKD 180120Z 1802/1814 25012KT 9999 SCT020
TEMPO 1804/1814 27015G25KT 4500 SHRA SCT012 SCT017CB BKN020
BECMG 1812/1814 30012KT

Example: see airport list